Time;durP1;ratioP1;P1;durP2;ratioP2;P2;SDS_P1;SDS_P2;PMS_P1;PMS_P2;Temp;Humidity;BMP_temperature;BMP_pressure;BME280_temperature;BME280_humidity;BME280_pressure;Samples;Min_cycle;Max_cycle;Signal;HPM_P1;HPM_P2
2022/07/18 00:00:40;;;;;;;3.08;0.85;;;18.00;69.40;;;;;;6173398;28;20046;-78
2022/07/18 00:03:42;;;;;;;2.42;1.08;;;17.90;69.70;;;;;;6172384;28;20487;-78
2022/07/18 00:06:43;;;;;;;2.13;0.82;;;17.70;69.90;;;;;;6173239;28;20210;-78
2022/07/18 00:09:45;;;;;;;3.45;0.82;;;17.70;70.70;;;;;;6172924;28;20509;-78
2022/07/18 00:12:48;;;;;;;1.40;0.85;;;17.70;71.10;;;;;;6173472;28;20053;-78
2022/07/18 00:15:50;;;;;;;5.72;0.93;;;17.60;71.10;;;;;;6173162;28;20437;-78
2022/07/18 00:18:52;;;;;;;2.75;0.95;;;17.50;71.60;;;;;;6173250;28;20047;-78
2022/07/18 00:21:54;;;;;;;2.47;1.05;;;17.50;71.90;;;;;;6180935;28;20065;-79
2022/07/18 00:24:55;;;;;;;4.72;1.00;;;17.50;72.50;;;;;;6196768;28;20496;-77
2022/07/18 00:27:58;;;;;;;3.65;0.80;;;17.40;72.60;;;;;;6197028;28;20047;-78
2022/07/18 00:31:00;;;;;;;0.98;0.75;;;17.50;73.10;;;;;;6196904;28;20046;-78
2022/07/18 00:34:03;;;;;;;5.10;1.40;;;17.40;73.10;;;;;;6196721;28;20053;-78
2022/07/18 00:37:05;;;;;;;2.35;0.93;;;17.40;73.40;;;;;;6197029;28;20054;-77
2022/07/18 00:40:08;;;;;;;2.05;0.93;;;17.40;73.80;;;;;;6196558;28;20452;-78
2022/07/18 00:43:13;;;;;;;3.22;0.80;;;17.30;73.60;;;;;;6196140;28;20046;-78
2022/07/18 00:46:15;;;;;;;3.22;0.95;;;17.30;74.00;;;;;;6196606;28;20046;-78
2022/07/18 00:49:16;;;;;;;1.77;1.00;;;17.30;74.10;;;;;;6196751;28;20416;-78
2022/07/18 00:52:18;;;;;;;2.58;0.90;;;17.30;74.10;;;;;;6198429;28;20050;-78
2022/07/18 00:55:20;;;;;;;2.67;1.00;;;17.30;74.40;;;;;;6209519;28;20061;-78
2022/07/18 00:58:23;;;;;;;1.98;1.02;;;17.20;74.70;;;;;;6199037;28;20053;-77
2022/07/18 01:04:44;;;;;;;7.65;1.67;;;17.10;75.40;;;;;;6201892;28;20134;-78
2022/07/18 01:07:46;;;;;;;4.18;1.00;;;17.00;75.90;;;;;;6200887;28;20058;-78
2022/07/18 01:10:48;;;;;;;4.65;1.10;;;17.00;76.10;;;;;;6200912;28;20043;-77
2022/07/18 01:13:51;;;;;;;3.55;1.00;;;16.90;76.30;;;;;;6200309;28;20057;-77
2022/07/18 01:16:53;;;;;;;1.35;0.73;;;16.90;76.80;;;;;;6201504;28;20050;-77
2022/07/18 01:19:54;;;;;;;3.08;1.08;;;16.80;77.00;;;;;;6200354;28;20714;-78
2022/07/18 01:22:58;;;;;;;1.95;0.75;;;16.80;77.00;;;;;;6200460;28;20053;-77
2022/07/18 01:25:59;;;;;;;3.03;0.85;;;16.80;77.20;;;;;;6200545;28;20058;-78
2022/07/18 01:29:01;;;;;;;3.70;1.35;;;16.80;77.30;;;;;;6200878;28;20058;-78
2022/07/18 01:32:07;;;;;;;2.40;1.10;;;16.80;77.60;;;;;;6200425;28;20112;-78
2022/07/18 01:35:09;;;;;;;1.50;1.10;;;16.70;78.00;;;;;;6199940;28;20046;-77
2022/07/18 01:38:13;;;;;;;2.03;0.88;;;16.60;78.40;;;;;;6200298;28;20050;-77
2022/07/18 01:41:15;;;;;;;3.88;1.20;;;16.50;78.80;;;;;;6200757;28;20050;-78
2022/07/18 01:44:16;;;;;;;5.22;0.90;;;16.40;79.10;;;;;;6199466;28;20063;-77
2022/07/18 01:47:18;;;;;;;2.97;0.80;;;16.30;79.70;;;;;;6199921;28;20046;-78
2022/07/18 01:50:20;;;;;;;2.47;0.90;;;16.30;80.20;;;;;;6199767;28;20052;-78
2022/07/18 01:53:24;;;;;;;3.45;0.95;;;16.20;80.50;;;;;;6202464;28;20061;-79
2022/07/18 01:56:26;;;;;;;3.63;1.30;;;16.20;80.70;;;;;;6189611;28;20138;-78
2022/07/18 01:59:28;;;;;;;3.22;0.90;;;16.30;80.90;;;;;;6175418;28;20047;-78
2022/07/18 02:02:30;;;;;;;1.20;0.77;;;16.20;80.90;;;;;;6175214;28;20047;-79
2022/07/18 02:05:32;;;;;;;2.75;0.95;;;16.10;81.00;;;;;;6176304;28;20057;-78
2022/07/18 02:08:35;;;;;;;1.30;1.02;;;16.10;81.10;;;;;;6176392;28;20153;-79
2022/07/18 02:11:37;;;;;;;4.53;1.00;;;16.10;81.20;;;;;;6176472;28;20065;-78
2022/07/18 02:14:39;;;;;;;6.13;1.15;;;16.10;81.20;;;;;;6176278;28;20050;-78
2022/07/18 02:17:41;;;;;;;2.55;1.05;;;16.10;81.50;;;;;;6176567;28;20051;-77
2022/07/18 02:20:43;;;;;;;2.92;1.05;;;16.10;81.50;;;;;;6176998;28;20051;-78
2022/07/18 02:23:46;;;;;;;1.35;0.75;;;16.10;81.90;;;;;;6175860;28;20054;-77
2022/07/18 02:26:48;;;;;;;3.85;1.45;;;16.00;82.00;;;;;;6174841;28;20046;-80
2022/07/18 02:29:51;;;;;;;6.72;1.25;;;16.00;81.90;;;;;;6175245;28;20059;-77
2022/07/18 02:32:55;;;;;;;2.45;0.90;;;15.90;82.10;;;;;;6174998;28;20069;-77
2022/07/18 02:35:56;;;;;;;4.45;1.10;;;15.90;82.40;;;;;;6174622;28;20526;-78
2022/07/18 02:38:59;;;;;;;1.95;0.88;;;15.90;82.40;;;;;;6174819;28;20066;-78
2022/07/18 02:42:02;;;;;;;3.10;1.00;;;15.90;82.60;;;;;;6175056;28;20053;-79
2022/07/18 02:45:04;;;;;;;2.80;0.80;;;15.80;82.90;;;;;;6175040;28;20421;-78
2022/07/18 02:48:06;;;;;;;5.03;1.70;;;15.70;83.00;;;;;;6174606;28;20050;-79
2022/07/18 02:51:08;;;;;;;1.40;0.80;;;15.70;83.60;;;;;;6174457;28;20527;-78
2022/07/18 02:54:11;;;;;;;2.63;1.35;;;15.70;83.90;;;;;;6176095;28;20465;-77
2022/07/18 02:57:12;;;;;;;6.53;1.45;;;15.60;84.00;;;;;;6204402;28;20420;-78
2022/07/18 03:00:15;;;;;;;4.50;1.25;;;15.60;83.90;;;;;;6198109;28;20054;-77
2022/07/18 03:03:17;;;;;;;5.28;1.00;;;15.70;83.80;;;;;;6198209;28;20049;-78
2022/07/18 03:06:18;;;;;;;3.13;0.93;;;15.70;83.90;;;;;;6198167;28;20165;-78
2022/07/18 03:09:21;;;;;;;7.85;1.00;;;15.70;83.70;;;;;;6198664;28;20416;-79
2022/07/18 03:12:23;;;;;;;3.13;1.20;;;15.70;83.60;;;;;;6197773;28;20057;-78
2022/07/18 03:15:25;;;;;;;4.18;0.80;;;15.80;83.70;;;;;;6197422;28;20411;-77
2022/07/18 03:18:27;;;;;;;1.25;0.70;;;15.80;83.50;;;;;;6197790;28;20142;-78
2022/07/18 03:21:29;;;;;;;2.13;0.95;;;15.70;83.50;;;;;;6197488;28;20053;-78
2022/07/18 03:24:32;;;;;;;5.63;1.13;;;15.60;83.70;;;;;;6197254;28;20053;-78
2022/07/18 03:27:34;;;;;;;1.30;0.80;;;15.60;84.10;;;;;;6197630;28;20538;-78
2022/07/18 03:30:36;;;;;;;7.32;1.20;;;15.60;84.10;;;;;;6197716;28;20052;-77
2022/07/18 03:33:38;;;;;;;5.43;1.08;;;15.60;84.10;;;;;;6197537;28;20073;-77
2022/07/18 03:36:39;;;;;;;2.45;0.90;;;15.70;84.20;;;;;;6197957;28;20154;-78
2022/07/18 03:39:43;;;;;;;1.63;0.77;;;15.60;83.90;;;;;;6197686;28;20043;-77
2022/07/18 03:42:44;;;;;;;1.73;1.10;;;15.70;83.90;;;;;;6197549;28;20054;-78
2022/07/18 03:45:47;;;;;;;3.30;1.00;;;15.60;84.00;;;;;;6196785;28;20413;-78
2022/07/18 03:48:49;;;;;;;2.95;0.93;;;15.60;84.40;;;;;;6197884;28;20189;-78
2022/07/18 03:51:51;;;;;;;2.28;1.77;;;15.60;84.40;;;;;;6197050;28;20050;-77
2022/07/18 03:54:54;;;;;;;3.95;1.63;;;15.60;84.20;;;;;;6197130;28;20055;-77
2022/07/18 03:57:56;;;;;;;2.15;1.05;;;15.60;84.60;;;;;;6201506;28;20046;-78
2022/07/18 04:00:58;;;;;;;2.67;1.13;;;15.60;83.60;;;;;;6197676;28;20161;-78
2022/07/18 04:03:59;;;;;;;5.97;1.02;;;15.70;83.50;;;;;;6196713;28;20134;-79
2022/07/18 04:07:01;;;;;;;2.70;1.35;;;15.80;84.20;;;;;;6197279;28;20050;-79
2022/07/18 04:10:07;;;;;;;2.72;1.15;;;15.90;83.50;;;;;;6197546;28;20077;-79
2022/07/18 04:13:09;;;;;;;6.40;1.30;;;15.90;83.30;;;;;;6198219;28;20496;-80
2022/07/18 04:16:11;;;;;;;2.58;1.10;;;16.00;83.10;;;;;;6213145;23;20061;-78
2022/07/18 04:19:13;;;;;;;5.20;0.98;;;16.00;82.90;;;;;;6198294;28;20388;-78
2022/07/18 04:22:15;;;;;;;7.53;1.17;;;16.10;82.70;;;;;;6198191;28;20038;-79
2022/07/18 04:25:19;;;;;;;2.80;1.20;;;16.20;82.20;;;;;;6198295;28;20517;-78
2022/07/18 04:28:21;;;;;;;4.55;0.90;;;16.30;81.80;;;;;;6197942;28;20093;-78
2022/07/18 04:31:22;;;;;;;2.50;0.93;;;16.50;81.60;;;;;;6199189;28;20053;-78
2022/07/18 04:34:24;;;;;;;1.92;0.85;;;16.50;81.10;;;;;;6202819;28;20050;-79
2022/07/18 04:37:26;;;;;;;3.28;1.20;;;16.60;80.70;;;;;;6203765;28;20492;-79
2022/07/18 04:40:29;;;;;;;2.42;1.05;;;16.70;80.90;;;;;;6202771;28;20054;-79
2022/07/18 04:43:31;;;;;;;2.20;1.38;;;17.00;80.90;;;;;;6202107;28;20053;-78
2022/07/18 04:46:33;;;;;;;3.53;1.42;;;17.20;80.10;;;;;;6202644;28;20057;-79
2022/07/18 04:49:34;;;;;;;1.65;0.98;;;17.90;78.40;;;;;;6202835;28;20050;-78
2022/07/18 04:52:38;;;;;;;2.60;1.08;;;19.40;73.80;;;;;;6203466;28;20060;-80
2022/07/18 04:55:41;;;;;;;16.15;1.60;;;20.80;68.60;;;;;;6204040;28;20046;-80
2022/07/18 04:58:43;;;;;;;5.80;1.40;;;22.00;63.80;;;;;;6200754;28;20047;-81
2022/07/18 05:01:45;;;;;;;8.75;1.45;;;23.00;60.30;;;;;;6205775;28;20057;-80
2022/07/18 05:04:47;;;;;;;5.20;1.48;;;23.90;57.30;;;;;;6209975;28;20526;-80
2022/07/18 05:07:50;;;;;;;11.32;1.25;;;24.40;55.10;;;;;;6205205;28;20043;-80
2022/07/18 05:10:53;;;;;;;7.25;1.20;;;24.70;54.00;;;;;;6204930;28;20053;-80
2022/07/18 05:13:55;;;;;;;4.97;0.93;;;25.40;52.10;;;;;;6204781;28;20427;-81
2022/07/18 05:16:56;;;;;;;2.10;1.00;;;26.20;50.10;;;;;;6206221;28;20057;-81
2022/07/18 05:19:58;;;;;;;2.50;1.13;;;27.20;48.00;;;;;;6204874;28;20056;-81
2022/07/18 05:23:00;;;;;;;2.20;0.90;;;27.80;46.50;;;;;;6204664;28;20042;-81
2022/07/18 05:26:03;;;;;;;5.00;1.38;;;28.40;45.10;;;;;;6204390;28;20496;-80
2022/07/18 05:29:05;;;;;;;2.33;1.17;;;29.20;43.90;;;;;;6205425;28;20375;-80
2022/07/18 05:32:08;;;;;;;6.00;0.93;;;30.30;42.10;;;;;;6204490;28;20069;-81
2022/07/18 05:35:11;;;;;;;3.25;1.20;;;31.10;40.90;;;;;;6204070;28;20038;-81
2022/07/18 05:38:13;;;;;;;5.82;1.55;;;32.00;39.60;;;;;;6206290;28;20046;-81
2022/07/18 05:41:16;;;;;;;7.70;1.23;;;33.20;38.30;;;;;;6220962;28;20050;-81
2022/07/18 05:44:19;;;;;;;5.57;0.90;;;34.60;36.70;;;;;;6210230;28;20145;-81
2022/07/18 05:47:21;;;;;;;3.10;0.98;;;36.00;34.90;;;;;;6205934;28;20053;-82
2022/07/18 05:50:24;;;;;;;3.95;1.10;;;37.30;32.90;;;;;;6205835;28;20050;-82
2022/07/18 05:53:26;;;;;;;8.15;0.90;;;38.20;31.60;;;;;;6205978;28;20054;-82
2022/07/18 05:56:29;;;;;;;3.55;1.25;;;38.90;30.00;;;;;;6204044;28;20046;-82
2022/07/18 05:59:31;;;;;;;3.33;0.85;;;39.50;29.20;;;;;;6204071;28;20049;-81
2022/07/18 06:02:33;;;;;;;4.10;0.70;;;39.90;28.60;;;;;;6226215;28;20492;-81
2022/07/18 06:05:35;;;;;;;5.55;0.80;;;40.00;27.70;;;;;;6204919;28;20046;-82
2022/07/18 06:08:37;;;;;;;10.40;0.80;;;39.90;27.20;;;;;;6205660;28;20072;-82
2022/07/18 06:11:40;;;;;;;3.67;0.80;;;39.70;27.00;;;;;;6204995;28;20129;-82
2022/07/18 06:14:42;;;;;;;3.35;0.50;;;39.50;26.90;;;;;;6204266;28;20042;-82
2022/07/18 06:17:44;;;;;;;2.10;0.52;;;39.40;26.90;;;;;;6205190;28;20042;-82
2022/07/18 06:20:46;;;;;;;5.22;0.60;;;39.50;26.70;;;;;;6205135;28;20113;-82
2022/07/18 06:23:47;;;;;;;1.60;0.60;;;39.10;26.70;;;;;;6203906;28;20054;-82
2022/07/18 06:26:50;;;;;;;1.00;0.35;;;38.50;27.10;;;;;;6204170;28;20050;-82
2022/07/18 06:29:52;;;;;;;1.70;0.80;;;38.10;27.20;;;;;;6204735;28;20062;-81
2022/07/18 06:32:54;;;;;;;2.03;0.50;;;38.40;27.20;;;;;;6204600;28;20058;-81
2022/07/18 06:35:55;;;;;;;1.15;0.75;;;38.90;27.30;;;;;;6202689;28;20069;-81
2022/07/18 06:38:57;;;;;;;3.10;0.77;;;39.50;27.00;;;;;;6203508;28;20053;-81
2022/07/18 06:42:00;;;;;;;5.75;0.73;;;39.90;26.70;;;;;;6203271;28;20101;-81
2022/07/18 06:45:02;;;;;;;3.28;0.85;;;40.10;26.70;;;;;;6203179;28;20069;-81
2022/07/18 06:48:04;;;;;;;5.80;1.25;;;40.00;26.60;;;;;;6202352;28;20046;-81
2022/07/18 06:51:08;;;;;;;2.78;0.70;;;37.80;27.70;;;;;;6202418;28;20147;-81
2022/07/18 06:54:09;;;;;;;2.97;0.63;;;35.40;29.30;;;;;;6201671;28;20058;-81
2022/07/18 06:57:12;;;;;;;13.18;2.03;;;33.70;30.20;;;;;;6201578;28;20050;-80
2022/07/18 07:00:15;;;;;;;5.70;0.73;;;32.50;31.80;;;;;;6193344;28;20570;-80
2022/07/18 07:03:18;;;;;;;1.88;0.70;;;31.80;32.60;;;;;;6202547;28;20050;-80
2022/07/18 07:06:19;;;;;;;9.18;1.00;;;31.20;33.30;;;;;;6204325;28;20061;-80
2022/07/18 07:09:21;;;;;;;4.22;1.08;;;30.60;33.50;;;;;;6202934;28;20050;-80
2022/07/18 07:12:24;;;;;;;5.05;0.90;;;30.00;34.60;;;;;;6202935;28;20069;-80
2022/07/18 07:15:26;;;;;;;6.47;0.85;;;29.80;34.70;;;;;;6202385;28;20052;-80
2022/07/18 07:18:28;;;;;;;7.53;0.98;;;29.70;34.80;;;;;;6203426;28;20050;-80
2022/07/18 07:21:30;;;;;;;4.18;0.90;;;29.70;34.90;;;;;;6203619;28;20064;-80
2022/07/18 07:24:31;;;;;;;8.20;0.95;;;29.50;35.00;;;;;;6202897;28;20042;-81
2022/07/18 07:27:34;;;;;;;5.32;1.10;;;29.40;35.20;;;;;;6203145;28;20053;-81
2022/07/18 07:30:36;;;;;;;1.77;0.90;;;29.40;35.30;;;;;;6202817;28;20057;-81
2022/07/18 07:33:38;;;;;;;1.70;0.60;;;29.30;35.60;;;;;;6203195;28;20054;-81
2022/07/18 07:36:40;;;;;;;6.53;0.60;;;29.30;35.40;;;;;;6201435;28;20506;-82
2022/07/18 07:39:42;;;;;;;2.47;0.82;;;29.50;35.60;;;;;;6153596;28;20085;-81
2022/07/18 07:42:45;;;;;;;3.03;0.77;;;29.50;35.70;;;;;;6199212;28;20073;-81
2022/07/18 07:45:50;;;;;;;2.08;0.50;;;29.60;35.20;;;;;;6210939;28;20058;-82
2022/07/18 07:48:52;;;;;;;7.50;0.80;;;29.70;35.60;;;;;;6226656;28;20053;-84
2022/07/18 07:51:53;;;;;;;5.28;0.88;;;29.80;35.70;;;;;;6202679;28;20057;-80
2022/07/18 07:54:55;;;;;;;3.05;0.60;;;30.00;35.30;;;;;;6201022;28;20057;-81
2022/07/18 07:57:59;;;;;;;1.52;0.88;;;30.30;35.40;;;;;;6201815;28;20047;-81
2022/07/18 08:01:00;;;;;;;3.72;1.08;;;30.00;34.40;;;;;;6194807;28;20054;-82
2022/07/18 08:04:02;;;;;;;4.18;0.60;;;29.70;35.20;;;;;;6199204;28;20415;-80
2022/07/18 08:07:04;;;;;;;1.73;0.60;;;29.50;35.00;;;;;;6200092;28;20054;-81
2022/07/18 08:10:07;;;;;;;6.03;0.70;;;29.60;35.40;;;;;;6201926;28;20154;-82
2022/07/18 08:13:10;;;;;;;2.53;0.82;;;29.70;35.60;;;;;;6202141;28;20050;-80
2022/07/18 08:16:12;;;;;;;17.02;1.58;;;29.70;35.40;;;;;;6220687;28;20118;-81
2022/07/18 08:19:14;;;;;;;2.92;1.30;;;29.90;35.10;;;;;;6225507;28;20510;-80
2022/07/18 08:22:15;;;;;;;3.53;0.73;;;30.00;35.30;;;;;;6224003;28;20057;-81
2022/07/18 08:25:18;;;;;;;2.80;0.80;;;30.30;35.20;;;;;;6224846;28;20503;-84
2022/07/18 08:28:21;;;;;;;1.42;0.57;;;30.40;35.60;;;;;;6224531;28;20057;-81
2022/07/18 08:31:25;;;;;;;2.20;0.80;;;30.60;35.00;;;;;;6201248;28;20423;-81
2022/07/18 08:34:26;;;;;;;3.38;0.82;;;30.80;34.60;;;;;;6204129;28;20050;-82
2022/07/18 08:37:28;;;;;;;4.97;0.77;;;30.60;35.00;;;;;;6208371;28;20046;-81
2022/07/18 08:40:30;;;;;;;2.47;0.77;;;30.80;35.20;;;;;;6207027;28;20046;-81
2022/07/18 08:43:33;;;;;;;4.68;1.15;;;31.00;34.90;;;;;;6214249;28;20057;-81
2022/07/18 08:46:37;;;;;;;3.13;0.73;;;31.10;34.70;;;;;;6229868;28;20054;-81
2022/07/18 08:49:39;;;;;;;3.97;1.10;;;31.30;34.50;;;;;;6233520;28;20056;-81
2022/07/18 08:52:41;;;;;;;1.77;0.98;;;31.20;34.60;;;;;;6231308;28;20049;-81
2022/07/18 08:55:44;;;;;;;4.55;0.50;;;31.20;34.30;;;;;;6226837;28;20046;-82
2022/07/18 08:58:47;;;;;;;2.67;0.95;;;31.50;34.80;;;;;;6227148;28;20125;-81
2022/07/18 09:01:48;;;;;;;5.18;0.73;;;31.80;34.00;;;;;;6205916;28;20520;-80
2022/07/18 09:04:50;;;;;;;7.22;1.10;;;32.00;33.90;;;;;;6202734;28;20485;-80
2022/07/18 09:07:52;;;;;;;3.50;0.55;;;32.10;33.90;;;;;;6201462;28;20046;-81
2022/07/18 09:10:56;;;;;;;7.30;2.55;;;32.30;33.60;;;;;;6200694;28;20504;-82
2022/07/18 09:13:59;;;;;;;10.07;1.00;;;32.30;33.10;;;;;;6197966;28;20050;-81
2022/07/18 09:17:08;;;;;;;5.78;0.88;;;32.50;33.00;;;;;;6200819;28;20568;-81
2022/07/18 09:20:14;;;;;;;1.45;0.77;;;32.30;32.70;;;;;;6205455;28;20048;-81
2022/07/18 09:23:18;;;;;;;3.70;0.63;;;32.40;33.00;;;;;;6204912;28;20046;-81
2022/07/18 09:26:37;;;;;;;2.72;0.90;;;32.60;32.90;;;;;;6204538;28;20052;-81
2022/07/18 09:29:40;;;;;;;5.93;0.93;;;32.80;32.60;;;;;;6205139;28;20043;-81
2022/07/18 09:32:44;;;;;;;2.88;0.68;;;33.00;32.90;;;;;;6204718;28;20397;-81
2022/07/18 09:35:48;;;;;;;2.85;0.57;;;33.30;32.30;;;;;;6205040;28;20046;-81
2022/07/18 09:38:50;;;;;;;2.45;0.50;;;33.30;32.10;;;;;;6205084;28;20423;-81
2022/07/18 09:41:52;;;;;;;4.22;0.60;;;33.20;31.90;;;;;;6204391;28;20504;-81
2022/07/18 09:45:01;;;;;;;2.05;0.85;;;33.10;32.50;;;;;;6204293;28;20061;-81
2022/07/18 09:48:04;;;;;;;1.40;0.50;;;33.20;32.30;;;;;;6202138;28;20126;-81
2022/07/18 09:51:07;;;;;;;3.25;0.88;;;33.30;32.20;;;;;;6202880;28;20053;-81
2022/07/18 09:54:09;;;;;;;4.75;0.57;;;33.40;31.50;;;;;;6201231;28;20052;-81
2022/07/18 09:57:24;;;;;;;2.15;0.63;;;33.30;32.10;;;;;;6202593;28;20106;-81
2022/07/18 10:00:28;;;;;;;6.03;0.73;;;33.70;31.60;;;;;;6202168;28;20053;-81
2022/07/18 10:03:30;;;;;;;2.95;0.70;;;34.20;31.40;;;;;;6200083;28;20411;-81
2022/07/18 10:06:33;;;;;;;2.22;0.60;;;34.50;30.70;;;;;;6201054;28;20053;-81
2022/07/18 10:09:35;;;;;;;9.85;0.80;;;34.60;30.40;;;;;;6201739;28;20058;-82
2022/07/18 10:12:36;;;;;;;1.23;0.52;;;35.20;30.30;;;;;;6202668;28;20050;-81
2022/07/18 10:15:41;;;;;;;3.88;0.80;;;36.00;29.80;;;;;;6227246;23;20077;-85
2022/07/18 10:18:43;;;;;;;2.42;0.70;;;36.90;29.30;;;;;;6209978;28;20274;-85
2022/07/18 10:21:47;;;;;;;6.88;1.33;;;37.60;29.00;;;;;;6206629;28;20419;-83
2022/07/18 10:24:50;;;;;;;4.43;1.15;;;37.80;28.50;;;;;;6205840;28;20061;-82
2022/07/18 10:27:54;;;;;;;2.75;0.85;;;37.50;28.30;;;;;;6206754;28;20042;-83
2022/07/18 10:31:14;;;;;;;0.82;0.40;;;37.20;27.90;;;;;;6206675;28;20415;-82
2022/07/18 10:34:15;;;;;;;4.32;1.30;;;36.80;28.50;;;;;;6208425;28;20050;-82
2022/07/18 10:37:25;;;;;;;9.52;1.80;;;36.70;29.00;;;;;;6205933;28;20052;-82
2022/07/18 10:40:29;;;;;;;3.70;0.50;;;36.90;28.60;;;;;;6206105;28;20050;-83
2022/07/18 10:43:38;;;;;;;3.20;0.70;;;37.10;29.10;;;;;;6208282;28;20046;-82
2022/07/18 10:47:08;;;;;;;5.32;1.15;;;37.30;28.70;;;;;;6209144;28;20048;-82
2022/07/18 10:50:10;;;;;;;1.30;0.60;;;37.40;28.40;;;;;;6193805;28;20046;-83
2022/07/18 10:53:12;;;;;;;6.35;0.50;;;37.20;28.20;;;;;;6207137;28;20047;-83
2022/07/18 10:56:14;;;;;;;7.53;0.90;;;37.30;28.70;;;;;;6207034;28;20052;-83
2022/07/18 10:59:17;;;;;;;0.98;0.50;;;37.60;28.30;;;;;;6207336;28;20050;-82
2022/07/18 11:02:32;;;;;;;2.60;0.70;;;37.90;28.50;;;;;;6206813;28;20393;-83
2022/07/18 11:05:35;;;;;;;0.50;0.40;;;38.20;28.40;;;;;;6209536;28;20054;-82
2022/07/18 11:08:37;;;;;;;3.03;0.50;;;38.50;28.10;;;;;;6207408;28;20053;-82
2022/07/18 11:12:17;;;;;;;1.95;0.52;;;38.60;27.70;;;;;;6206993;28;20064;-83
2022/07/18 11:15:18;;;;;;;1.13;0.50;;;38.90;27.70;;;;;;6207157;28;20054;-83
2022/07/18 11:18:22;;;;;;;6.28;0.50;;;39.10;27.50;;;;;;6207335;28;20526;-83
2022/07/18 11:21:26;;;;;;;4.07;0.80;;;39.30;27.40;;;;;;6207795;28;20054;-82
2022/07/18 11:24:28;;;;;;;1.25;0.30;;;39.60;27.50;;;;;;6206739;28;20321;-82
2022/07/18 11:27:31;;;;;;;3.72;0.88;;;39.80;27.20;;;;;;6204635;28;20196;-83
2022/07/18 11:30:33;;;;;;;1.95;0.70;;;39.80;26.60;;;;;;6205945;28;20050;-86
2022/07/18 11:33:39;;;;;;;5.88;0.50;;;39.40;26.50;;;;;;6207825;28;20054;-84
2022/07/18 11:36:42;;;;;;;4.72;0.60;;;39.20;27.00;;;;;;6212917;28;20044;-82
2022/07/18 11:39:44;;;;;;;1.95;0.55;;;39.50;27.20;;;;;;6211206;28;20050;-81
2022/07/18 11:42:46;;;;;;;7.57;0.73;;;39.90;26.90;;;;;;6207057;28;20046;-83
2022/07/18 11:45:48;;;;;;;3.47;0.60;;;40.20;26.90;;;;;;6210191;28;20058;-83
2022/07/18 11:49:02;;;;;;;3.72;0.40;;;40.40;26.30;;;;;;6206221;28;20385;-81
2022/07/18 11:52:04;;;;;;;1.65;0.47;;;40.60;25.80;;;;;;6219359;28;20038;-82
2022/07/18 11:55:07;;;;;;;1.67;0.70;;;40.10;26.10;;;;;;6224164;28;20038;-82
2022/07/18 11:58:10;;;;;;;6.45;0.68;;;39.80;26.30;;;;;;6213809;28;20050;-84
2022/07/18 12:01:13;;;;;;;4.80;0.60;;;39.80;26.30;;;;;;6207794;28;20046;-82
2022/07/18 12:04:20;;;;;;;1.13;0.60;;;39.70;26.10;;;;;;6197110;28;20055;-82
2022/07/18 12:07:25;;;;;;;1.73;0.55;;;39.60;26.00;;;;;;6184792;28;20043;-82
2022/07/18 12:10:27;;;;;;;3.47;0.55;;;40.00;26.10;;;;;;6189777;28;20047;-84
2022/07/18 12:13:46;;;;;;;3.75;0.30;;;40.30;26.40;;;;;;6193428;28;20054;-83
2022/07/18 12:16:49;;;;;;;1.40;0.40;;;40.70;25.80;;;;;;6183757;28;20053;-82
2022/07/18 12:19:53;;;;;;;5.07;0.60;;;41.00;25.70;;;;;;6213629;28;20507;-83
2022/07/18 12:23:11;;;;;;;1.52;0.47;;;41.30;25.50;;;;;;6233127;28;20045;-83
2022/07/18 12:26:27;;;;;;;3.30;0.95;;;41.40;25.20;;;;;;6231988;28;20053;-83
2022/07/18 12:29:29;;;;;;;1.70;0.40;;;41.20;25.40;;;;;;6225601;28;20093;-83
2022/07/18 12:32:38;;;;;;;1.25;0.43;;;41.40;25.30;;;;;;6211246;28;20057;-83
2022/07/18 12:35:42;;;;;;;0.40;0.30;;;41.50;25.20;;;;;;6210066;28;20051;-83
2022/07/18 12:39:00;;;;;;;3.33;0.60;;;41.70;25.80;;;;;;6210007;28;20057;-82
2022/07/18 12:42:02;;;;;;;1.42;0.50;;;42.00;25.00;;;;;;6207209;28;20053;-83
2022/07/18 12:45:05;;;;;;;1.25;0.45;;;42.30;24.80;;;;;;6206050;28;20054;-83
2022/07/18 12:48:09;;;;;;;1.63;0.60;;;42.30;24.70;;;;;;6207769;28;20046;-83
2022/07/18 12:51:12;;;;;;;2.85;0.50;;;42.40;24.70;;;;;;6222274;28;20046;-83
2022/07/18 12:54:15;;;;;;;5.65;0.70;;;42.30;24.70;;;;;;6233759;28;20089;-82
2022/07/18 12:57:17;;;;;;;2.83;0.70;;;42.30;24.50;;;;;;6236284;28;20048;-83
2022/07/18 13:00:19;;;;;;;1.38;0.47;;;42.00;24.40;;;;;;6240595;28;20050;-82
2022/07/18 13:03:20;;;;;;;5.63;0.50;;;41.90;24.80;;;;;;6241910;28;20050;-83
2022/07/18 13:06:23;;;;;;;4.53;0.47;;;42.20;24.80;;;;;;6218658;28;20057;-82
2022/07/18 13:09:25;;;;;;;2.60;0.40;;;42.60;24.30;;;;;;6239088;28;20052;-82
2022/07/18 13:12:27;;;;;;;3.13;0.90;;;42.80;24.30;;;;;;6240589;28;20132;-82
2022/07/18 13:15:29;;;;;;;2.88;0.40;;;42.90;24.10;;;;;;6239255;28;20046;-82
2022/07/18 13:18:30;;;;;;;2.95;0.43;;;43.10;24.20;;;;;;6233857;28;20054;-82
2022/07/18 13:21:33;;;;;;;0.85;0.30;;;43.10;23.90;;;;;;6230476;28;20053;-82
2022/07/18 13:24:36;;;;;;;0.40;0.28;;;42.80;24.10;;;;;;6239004;28;20053;-82
2022/07/18 13:27:39;;;;;;;0.52;0.20;;;42.80;24.20;;;;;;6236164;28;20478;-81
2022/07/18 13:30:41;;;;;;;5.82;0.52;;;42.80;23.90;;;;;;6216595;28;20046;-83
2022/07/18 13:33:42;;;;;;;2.45;0.30;;;42.70;24.20;;;;;;6213228;28;20054;-82
2022/07/18 13:36:46;;;;;;;1.92;0.38;;;42.60;24.10;;;;;;6211786;28;20050;-81
2022/07/18 13:39:47;;;;;;;0.93;0.50;;;42.70;24.10;;;;;;6213470;28;20061;-82
2022/07/18 13:42:49;;;;;;;0.28;0.17;;;42.60;23.90;;;;;;6211773;28;20508;-81
2022/07/18 13:45:51;;;;;;;4.07;0.40;;;42.50;23.90;;;;;;6210560;28;20062;-82
2022/07/18 13:48:52;;;;;;;1.80;0.50;;;42.50;23.90;;;;;;6215141;28;20133;-82
2022/07/18 13:51:55;;;;;;;2.85;0.43;;;42.70;23.90;;;;;;6229859;28;20057;-83
2022/07/18 13:54:57;;;;;;;1.13;0.40;;;42.70;24.00;;;;;;6218702;28;20050;-83
2022/07/18 13:57:59;;;;;;;2.17;0.50;;;42.80;23.80;;;;;;6212473;28;20038;-82
2022/07/18 14:01:00;;;;;;;8.75;0.75;;;43.00;23.80;;;;;;6212157;28;20054;-82
2022/07/18 14:04:02;;;;;;;1.52;0.50;;;42.90;23.60;;;;;;6209951;28;20057;-81
2022/07/18 14:07:06;;;;;;;4.25;0.40;;;43.00;23.60;;;;;;6208156;28;20632;-84
2022/07/18 14:10:09;;;;;;;3.88;0.60;;;43.00;23.60;;;;;;6214978;28;20053;-83
2022/07/18 14:13:10;;;;;;;2.08;0.82;;;43.00;23.50;;;;;;6215653;28;20252;-83
2022/07/18 14:16:12;;;;;;;0.95;0.40;;;43.00;23.40;;;;;;6211404;28;20048;-82
2022/07/18 14:19:14;;;;;;;1.90;0.57;;;43.10;23.30;;;;;;6215338;28;20050;-82
2022/07/18 14:22:17;;;;;;;3.35;0.30;;;43.10;23.20;;;;;;6231195;28;20121;-82
2022/07/18 14:25:19;;;;;;;3.25;0.50;;;42.40;23.20;;;;;;6233809;28;20064;-81
2022/07/18 14:28:20;;;;;;;2.88;0.57;;;41.80;23.80;;;;;;6236073;28;20046;-83
2022/07/18 14:31:22;;;;;;;6.43;0.40;;;41.60;23.60;;;;;;6234028;28;20050;-81
2022/07/18 14:34:24;;;;;;;1.27;0.20;;;41.40;23.70;;;;;;6235159;28;20050;-83
2022/07/18 14:37:27;;;;;;;2.97;1.10;;;41.40;23.90;;;;;;6234708;28;20052;-83
2022/07/18 14:40:29;;;;;;;0.82;0.38;;;41.50;23.80;;;;;;6232106;28;20042;-84
2022/07/18 14:43:30;;;;;;;3.03;0.43;;;41.50;23.80;;;;;;6231932;28;20535;-84
2022/07/18 14:46:32;;;;;;;7.28;0.35;;;41.30;23.90;;;;;;6230294;28;20507;-83
2022/07/18 14:49:34;;;;;;;1.42;0.55;;;41.20;23.90;;;;;;6219626;28;20050;-83
2022/07/18 14:52:38;;;;;;;3.95;0.60;;;41.10;24.00;;;;;;6204479;28;20093;-82
2022/07/18 14:55:39;;;;;;;2.97;0.50;;;41.00;24.00;;;;;;6201473;28;20054;-84
2022/07/18 14:58:42;;;;;;;2.15;0.20;;;41.30;24.00;;;;;;6205318;28;20078;-83
2022/07/18 15:01:43;;;;;;;3.53;0.90;;;41.30;24.00;;;;;;6207019;28;20090;-83
2022/07/18 15:04:45;;;;;;;3.63;0.40;;;41.10;24.20;;;;;;6204691;28;20050;-82
2022/07/18 15:07:48;;;;;;;2.92;0.47;;;41.00;24.20;;;;;;6205331;28;20053;-82
2022/07/18 15:10:50;;;;;;;4.78;0.50;;;41.00;24.10;;;;;;6230522;28;20046;-82
2022/07/18 15:13:52;;;;;;;0.95;0.30;;;41.10;24.30;;;;;;6230906;28;20064;-83
2022/07/18 15:16:55;;;;;;;0.55;0.40;;;41.20;24.20;;;;;;6230084;28;20100;-82
2022/07/18 15:19:57;;;;;;;1.73;0.50;;;41.20;24.10;;;;;;6218913;28;20056;-82
2022/07/18 15:23:00;;;;;;;0.57;0.22;;;41.40;24.20;;;;;;6230512;28;20053;-82
2022/07/18 15:26:02;;;;;;;2.55;0.38;;;41.50;24.30;;;;;;6229941;28;20048;-83
2022/07/18 15:29:03;;;;;;;3.47;1.10;;;41.50;24.00;;;;;;6228198;28;20049;-82
2022/07/18 15:32:08;;;;;;;4.18;0.70;;;41.40;24.00;;;;;;6227925;28;20512;-83
2022/07/18 15:35:10;;;;;;;3.05;0.50;;;41.40;24.20;;;;;;6225624;28;20049;-83
2022/07/18 15:38:13;;;;;;;2.38;0.20;;;41.20;24.20;;;;;;6230262;28;20046;-82
2022/07/18 15:41:17;;;;;;;4.15;0.43;;;41.10;24.20;;;;;;6232692;28;20133;-82
2022/07/18 15:44:18;;;;;;;2.00;0.40;;;41.00;24.20;;;;;;6231678;28;20057;-82
2022/07/18 15:47:20;;;;;;;1.38;0.35;;;41.00;24.40;;;;;;6229558;28;20050;-81
2022/07/18 15:50:22;;;;;;;1.10;0.40;;;41.20;24.40;;;;;;6209532;28;20721;-82
2022/07/18 15:53:25;;;;;;;0.55;0.32;;;41.20;24.30;;;;;;6201260;28;20050;-82